sensor_id;sensor_type;location;lat;lon;timestamp;P1;durP1;ratioP1;P2;durP2;ratioP2
17921;SDS011;9086;50.966;3.144;2023-04-03T00:02:01;11.93;;;10.73;;
17921;SDS011;9086;50.966;3.144;2023-04-03T00:04:27;15.37;;;11.67;;
17921;SDS011;9086;50.966;3.144;2023-04-03T00:06:53;17.30;;;11.83;;
17921;SDS011;9086;50.966;3.144;2023-04-03T00:09:19;14.63;;;11.23;;
17921;SDS011;9086;50.966;3.144;2023-04-03T00:11:45;14.70;;;11.93;;
17921;SDS011;9086;50.966;3.144;2023-04-03T00:14:11;16.60;;;12.07;;
17921;SDS011;9086;50.966;3.144;2023-04-03T00:16:37;14.53;;;11.97;;
17921;SDS011;9086;50.966;3.144;2023-04-03T00:19:03;14.13;;;11.20;;
17921;SDS011;9086;50.966;3.144;2023-04-03T00:21:30;13.07;;;11.47;;
17921;SDS011;9086;50.966;3.144;2023-04-03T00:23:56;14.90;;;11.00;;
17921;SDS011;9086;50.966;3.144;2023-04-03T00:26:22;14.20;;;11.60;;
17921;SDS011;9086;50.966;3.144;2023-04-03T00:28:48;15.20;;;11.17;;
17921;SDS011;9086;50.966;3.144;2023-04-03T00:31:15;17.73;;;12.03;;
17921;SDS011;9086;50.966;3.144;2023-04-03T00:33:41;15.83;;;12.17;;
17921;SDS011;9086;50.966;3.144;2023-04-03T00:36:08;14.57;;;11.70;;
17921;SDS011;9086;50.966;3.144;2023-04-03T00:38:35;14.60;;;12.13;;
17921;SDS011;9086;50.966;3.144;2023-04-03T00:41:01;14.17;;;11.37;;
17921;SDS011;9086;50.966;3.144;2023-04-03T00:43:27;17.47;;;11.43;;
17921;SDS011;9086;50.966;3.144;2023-04-03T00:45:54;18.63;;;12.07;;
17921;SDS011;9086;50.966;3.144;2023-04-03T00:48:21;16.60;;;11.17;;
17921;SDS011;9086;50.966;3.144;2023-04-03T00:50:48;15.47;;;12.13;;
17921;SDS011;9086;50.966;3.144;2023-04-03T00:53:19;19.93;;;12.10;;
17921;SDS011;9086;50.966;3.144;2023-04-03T00:55:47;16.10;;;11.47;;
17921;SDS011;9086;50.966;3.144;2023-04-03T00:58:15;16.90;;;11.90;;
17921;SDS011;9086;50.966;3.144;2023-04-03T01:00:42;14.60;;;10.93;;
17921;SDS011;9086;50.966;3.144;2023-04-03T01:03:10;11.50;;;10.27;;
17921;SDS011;9086;50.966;3.144;2023-04-03T01:05:36;10.50;;;9.07;;
17921;SDS011;9086;50.966;3.144;2023-04-03T01:08:02;13.53;;;10.87;;
17921;SDS011;9086;50.966;3.144;2023-04-03T01:10:28;14.27;;;10.50;;
17921;SDS011;9086;50.966;3.144;2023-04-03T01:12:54;14.17;;;11.37;;
17921;SDS011;9086;50.966;3.144;2023-04-03T01:15:21;12.63;;;10.27;;
17921;SDS011;9086;50.966;3.144;2023-04-03T01:17:49;12.80;;;9.70;;
17921;SDS011;9086;50.966;3.144;2023-04-03T01:25:26;13.43;;;10.57;;
17921;SDS011;9086;50.966;3.144;2023-04-03T01:27:52;13.90;;;10.00;;
17921;SDS011;9086;50.966;3.144;2023-04-03T01:30:19;10.67;;;9.57;;
17921;SDS011;9086;50.966;3.144;2023-04-03T01:32:45;13.77;;;8.73;;
17921;SDS011;9086;50.966;3.144;2023-04-03T01:35:12;16.40;;;10.83;;
17921;SDS011;9086;50.966;3.144;2023-04-03T01:37:38;13.67;;;9.63;;
17921;SDS011;9086;50.966;3.144;2023-04-03T01:40:04;11.07;;;9.30;;
17921;SDS011;9086;50.966;3.144;2023-04-03T01:42:30;12.57;;;9.83;;
17921;SDS011;9086;50.966;3.144;2023-04-03T01:44:56;14.00;;;9.30;;
17921;SDS011;9086;50.966;3.144;2023-04-03T01:47:22;11.47;;;9.43;;
17921;SDS011;9086;50.966;3.144;2023-04-03T01:49:48;11.40;;;9.17;;
17921;SDS011;9086;50.966;3.144;2023-04-03T01:52:14;12.33;;;10.23;;
17921;SDS011;9086;50.966;3.144;2023-04-03T01:54:40;12.10;;;10.03;;
17921;SDS011;9086;50.966;3.144;2023-04-03T01:57:06;16.63;;;10.40;;
17921;SDS011;9086;50.966;3.144;2023-04-03T01:59:32;12.07;;;10.83;;
17921;SDS011;9086;50.966;3.144;2023-04-03T02:01:59;11.90;;;9.50;;
17921;SDS011;9086;50.966;3.144;2023-04-03T02:04:25;14.63;;;10.03;;
17921;SDS011;9086;50.966;3.144;2023-04-03T02:06:51;12.53;;;9.77;;
17921;SDS011;9086;50.966;3.144;2023-04-03T02:09:17;15.33;;;10.33;;
17921;SDS011;9086;50.966;3.144;2023-04-03T02:11:43;13.50;;;9.90;;
17921;SDS011;9086;50.966;3.144;2023-04-03T02:14:09;11.43;;;9.70;;
17921;SDS011;9086;50.966;3.144;2023-04-03T02:16:35;15.90;;;10.70;;
17921;SDS011;9086;50.966;3.144;2023-04-03T02:19:01;11.53;;;9.53;;
17921;SDS011;9086;50.966;3.144;2023-04-03T02:21:28;10.80;;;9.70;;
17921;SDS011;9086;50.966;3.144;2023-04-03T02:23:54;12.67;;;10.63;;
17921;SDS011;9086;50.966;3.144;2023-04-03T02:26:20;10.80;;;9.40;;
17921;SDS011;9086;50.966;3.144;2023-04-03T02:28:46;15.00;;;11.13;;
17921;SDS011;9086;50.966;3.144;2023-04-03T02:31:12;14.53;;;10.47;;
17921;SDS011;9086;50.966;3.144;2023-04-03T02:33:38;13.03;;;10.77;;
17921;SDS011;9086;50.966;3.144;2023-04-03T02:36:05;12.17;;;10.83;;
17921;SDS011;9086;50.966;3.144;2023-04-03T02:38:31;13.60;;;10.83;;
17921;SDS011;9086;50.966;3.144;2023-04-03T02:41:01;12.83;;;10.43;;
17921;SDS011;9086;50.966;3.144;2023-04-03T02:43:27;13.13;;;10.77;;
17921;SDS011;9086;50.966;3.144;2023-04-03T02:45:53;15.77;;;10.17;;
17921;SDS011;9086;50.966;3.144;2023-04-03T02:48:19;13.53;;;10.33;;
17921;SDS011;9086;50.966;3.144;2023-04-03T02:50:45;12.73;;;9.77;;
17921;SDS011;9086;50.966;3.144;2023-04-03T02:53:11;12.00;;;10.33;;
17921;SDS011;9086;50.966;3.144;2023-04-03T02:55:37;13.90;;;9.93;;
17921;SDS011;9086;50.966;3.144;2023-04-03T02:58:03;13.73;;;9.33;;
17921;SDS011;9086;50.966;3.144;2023-04-03T03:00:29;12.43;;;9.93;;
17921;SDS011;9086;50.966;3.144;2023-04-03T03:02:56;11.07;;;9.57;;
17921;SDS011;9086;50.966;3.144;2023-04-03T03:05:22;12.50;;;9.70;;
17921;SDS011;9086;50.966;3.144;2023-04-03T03:07:48;11.47;;;8.70;;
17921;SDS011;9086;50.966;3.144;2023-04-03T03:10:14;11.13;;;8.57;;
17921;SDS011;9086;50.966;3.144;2023-04-03T03:12:40;13.37;;;9.93;;
17921;SDS011;9086;50.966;3.144;2023-04-03T03:15:06;14.97;;;9.67;;
17921;SDS011;9086;50.966;3.144;2023-04-03T03:17:33;10.97;;;9.70;;
17921;SDS011;9086;50.966;3.144;2023-04-03T03:19:59;10.93;;;9.63;;
17921;SDS011;9086;50.966;3.144;2023-04-03T03:22:25;14.23;;;9.53;;
17921;SDS011;9086;50.966;3.144;2023-04-03T03:24:51;11.80;;;9.47;;
17921;SDS011;9086;50.966;3.144;2023-04-03T03:27:17;16.07;;;9.90;;
17921;SDS011;9086;50.966;3.144;2023-04-03T03:29:43;11.00;;;8.63;;
17921;SDS011;9086;50.966;3.144;2023-04-03T03:32:09;12.40;;;9.10;;
17921;SDS011;9086;50.966;3.144;2023-04-03T03:34:35;11.87;;;8.80;;
17921;SDS011;9086;50.966;3.144;2023-04-03T03:37:01;10.17;;;8.67;;
17921;SDS011;9086;50.966;3.144;2023-04-03T03:39:27;11.27;;;9.53;;
17921;SDS011;9086;50.966;3.144;2023-04-03T03:41:53;11.70;;;7.97;;
17921;SDS011;9086;50.966;3.144;2023-04-03T03:44:20;10.43;;;8.87;;
17921;SDS011;9086;50.966;3.144;2023-04-03T03:46:46;10.40;;;8.47;;
17921;SDS011;9086;50.966;3.144;2023-04-03T03:49:12;13.20;;;8.93;;
17921;SDS011;9086;50.966;3.144;2023-04-03T03:51:38;14.20;;;9.57;;
17921;SDS011;9086;50.966;3.144;2023-04-03T03:54:05;11.90;;;9.40;;
17921;SDS011;9086;50.966;3.144;2023-04-03T03:56:32;10.97;;;8.53;;
17921;SDS011;9086;50.966;3.144;2023-04-03T03:58:58;12.00;;;9.40;;
17921;SDS011;9086;50.966;3.144;2023-04-03T04:01:24;10.23;;;7.93;;
17921;SDS011;9086;50.966;3.144;2023-04-03T04:03:50;12.23;;;8.83;;
17921;SDS011;9086;50.966;3.144;2023-04-03T04:06:18;12.07;;;8.63;;
17921;SDS011;9086;50.966;3.144;2023-04-03T04:08:45;12.47;;;9.37;;
17921;SDS011;9086;50.966;3.144;2023-04-03T04:11:11;10.57;;;9.30;;
17921;SDS011;9086;50.966;3.144;2023-04-03T04:13:37;12.87;;;9.43;;
17921;SDS011;9086;50.966;3.144;2023-04-03T04:16:03;12.97;;;9.87;;
17921;SDS011;9086;50.966;3.144;2023-04-03T04:18:30;11.23;;;9.43;;
17921;SDS011;9086;50.966;3.144;2023-04-03T04:20:56;14.97;;;10.20;;
17921;SDS011;9086;50.966;3.144;2023-04-03T04:23:22;11.77;;;10.20;;
17921;SDS011;9086;50.966;3.144;2023-04-03T04:25:48;17.17;;;12.00;;
17921;SDS011;9086;50.966;3.144;2023-04-03T04:28:15;13.80;;;10.47;;
17921;SDS011;9086;50.966;3.144;2023-04-03T04:30:41;16.03;;;10.77;;
17921;SDS011;9086;50.966;3.144;2023-04-03T04:33:07;17.90;;;11.33;;
17921;SDS011;9086;50.966;3.144;2023-04-03T04:35:33;16.27;;;11.77;;
17921;SDS011;9086;50.966;3.144;2023-04-03T04:38:00;17.07;;;12.87;;
17921;SDS011;9086;50.966;3.144;2023-04-03T04:40:26;23.53;;;14.37;;
17921;SDS011;9086;50.966;3.144;2023-04-03T04:42:52;19.93;;;14.07;;
17921;SDS011;9086;50.966;3.144;2023-04-03T04:45:18;22.73;;;13.83;;
17921;SDS011;9086;50.966;3.144;2023-04-03T04:47:44;23.40;;;16.17;;
17921;SDS011;9086;50.966;3.144;2023-04-03T04:50:10;24.50;;;16.33;;
17921;SDS011;9086;50.966;3.144;2023-04-03T04:52:36;28.73;;;18.03;;
17921;SDS011;9086;50.966;3.144;2023-04-03T04:55:02;30.17;;;17.40;;
17921;SDS011;9086;50.966;3.144;2023-04-03T04:57:29;26.07;;;16.23;;
17921;SDS011;9086;50.966;3.144;2023-04-03T04:59:55;28.10;;;16.03;;
17921;SDS011;9086;50.966;3.144;2023-04-03T05:02:21;24.00;;;16.70;;
17921;SDS011;9086;50.966;3.144;2023-04-03T05:04:47;22.83;;;15.03;;
17921;SDS011;9086;50.966;3.144;2023-04-03T05:07:15;19.20;;;13.40;;
17921;SDS011;9086;50.966;3.144;2023-04-03T05:09:41;12.33;;;10.70;;
17921;SDS011;9086;50.966;3.144;2023-04-03T05:12:07;14.77;;;11.93;;
17921;SDS011;9086;50.966;3.144;2023-04-03T05:14:33;12.53;;;10.80;;
17921;SDS011;9086;50.966;3.144;2023-04-03T05:16:59;12.87;;;10.90;;
17921;SDS011;9086;50.966;3.144;2023-04-03T05:19:25;12.70;;;10.00;;
17921;SDS011;9086;50.966;3.144;2023-04-03T05:21:51;13.07;;;10.00;;
17921;SDS011;9086;50.966;3.144;2023-04-03T05:24:17;11.60;;;8.50;;
17921;SDS011;9086;50.966;3.144;2023-04-03T05:26:43;11.00;;;9.70;;
17921;SDS011;9086;50.966;3.144;2023-04-03T05:29:09;17.83;;;9.80;;
17921;SDS011;9086;50.966;3.144;2023-04-03T05:31:35;14.30;;;9.97;;
17921;SDS011;9086;50.966;3.144;2023-04-03T05:34:02;13.10;;;8.77;;
17921;SDS011;9086;50.966;3.144;2023-04-03T05:36:28;10.37;;;9.17;;
17921;SDS011;9086;50.966;3.144;2023-04-03T05:38:54;12.60;;;9.80;;
17921;SDS011;9086;50.966;3.144;2023-04-03T05:41:21;11.23;;;10.10;;
17921;SDS011;9086;50.966;3.144;2023-04-03T05:43:47;12.87;;;10.10;;
17921;SDS011;9086;50.966;3.144;2023-04-03T05:46:17;16.83;;;10.40;;
17921;SDS011;9086;50.966;3.144;2023-04-03T05:48:44;13.53;;;9.60;;
17921;SDS011;9086;50.966;3.144;2023-04-03T05:51:15;14.00;;;10.17;;
17921;SDS011;9086;50.966;3.144;2023-04-03T05:53:41;12.17;;;10.30;;
17921;SDS011;9086;50.966;3.144;2023-04-03T05:56:09;13.13;;;10.73;;
17921;SDS011;9086;50.966;3.144;2023-04-03T05:58:35;10.40;;;9.30;;
17921;SDS011;9086;50.966;3.144;2023-04-03T06:01:01;9.90;;;7.63;;
17921;SDS011;9086;50.966;3.144;2023-04-03T06:03:27;9.40;;;7.23;;
17921;SDS011;9086;50.966;3.144;2023-04-03T06:05:53;10.33;;;8.63;;
17921;SDS011;9086;50.966;3.144;2023-04-03T06:08:19;14.07;;;9.33;;
17921;SDS011;9086;50.966;3.144;2023-04-03T06:10:46;13.33;;;9.57;;
17921;SDS011;9086;50.966;3.144;2023-04-03T06:13:12;12.07;;;9.57;;
17921;SDS011;9086;50.966;3.144;2023-04-03T06:15:38;10.93;;;9.63;;
17921;SDS011;9086;50.966;3.144;2023-04-03T06:18:05;10.97;;;9.67;;
17921;SDS011;9086;50.966;3.144;2023-04-03T06:20:31;11.80;;;9.27;;
17921;SDS011;9086;50.966;3.144;2023-04-03T06:22:57;10.73;;;9.50;;
17921;SDS011;9086;50.966;3.144;2023-04-03T06:25:23;10.23;;;8.73;;
17921;SDS011;9086;50.966;3.144;2023-04-03T06:27:50;12.10;;;8.90;;
17921;SDS011;9086;50.966;3.144;2023-04-03T06:30:16;12.17;;;9.23;;
17921;SDS011;9086;50.966;3.144;2023-04-03T06:32:42;11.40;;;9.90;;
17921;SDS011;9086;50.966;3.144;2023-04-03T06:35:08;10.27;;;8.87;;
17921;SDS011;9086;50.966;3.144;2023-04-03T06:37:34;11.77;;;8.93;;
17921;SDS011;9086;50.966;3.144;2023-04-03T06:40:00;11.20;;;9.73;;
17921;SDS011;9086;50.966;3.144;2023-04-03T06:42:27;13.30;;;9.23;;
17921;SDS011;9086;50.966;3.144;2023-04-03T06:44:53;17.60;;;7.57;;
17921;SDS011;9086;50.966;3.144;2023-04-03T06:47:20;9.57;;;7.67;;
17921;SDS011;9086;50.966;3.144;2023-04-03T06:49:46;9.40;;;8.10;;
17921;SDS011;9086;50.966;3.144;2023-04-03T06:52:12;9.13;;;8.10;;
17921;SDS011;9086;50.966;3.144;2023-04-03T06:54:39;9.27;;;7.43;;
17921;SDS011;9086;50.966;3.144;2023-04-03T06:57:05;7.83;;;6.20;;
17921;SDS011;9086;50.966;3.144;2023-04-03T06:59:31;10.00;;;7.17;;
17921;SDS011;9086;50.966;3.144;2023-04-03T07:01:57;10.17;;;8.23;;
17921;SDS011;9086;50.966;3.144;2023-04-03T07:04:24;8.60;;;7.70;;
17921;SDS011;9086;50.966;3.144;2023-04-03T07:06:51;7.77;;;5.70;;
17921;SDS011;9086;50.966;3.144;2023-04-03T07:09:17;9.07;;;7.30;;
17921;SDS011;9086;50.966;3.144;2023-04-03T07:11:43;7.93;;;6.83;;
17921;SDS011;9086;50.966;3.144;2023-04-03T07:14:09;9.20;;;6.57;;
17921;SDS011;9086;50.966;3.144;2023-04-03T07:16:35;8.20;;;6.27;;
17921;SDS011;9086;50.966;3.144;2023-04-03T07:19:02;7.07;;;6.20;;
17921;SDS011;9086;50.966;3.144;2023-04-03T07:21:28;6.73;;;6.13;;
17921;SDS011;9086;50.966;3.144;2023-04-03T07:23:54;10.07;;;6.43;;
17921;SDS011;9086;50.966;3.144;2023-04-03T07:26:21;6.63;;;5.80;;
17921;SDS011;9086;50.966;3.144;2023-04-03T07:28:48;6.63;;;5.83;;
17921;SDS011;9086;50.966;3.144;2023-04-03T07:31:15;8.50;;;6.17;;
17921;SDS011;9086;50.966;3.144;2023-04-03T07:33:42;7.70;;;5.90;;
17921;SDS011;9086;50.966;3.144;2023-04-03T07:36:10;7.63;;;5.60;;
17921;SDS011;9086;50.966;3.144;2023-04-03T07:38:36;7.20;;;5.63;;
17921;SDS011;9086;50.966;3.144;2023-04-03T07:41:02;6.90;;;6.17;;
17921;SDS011;9086;50.966;3.144;2023-04-03T07:43:29;6.77;;;5.87;;
17921;SDS011;9086;50.966;3.144;2023-04-03T07:45:55;5.70;;;5.00;;
17921;SDS011;9086;50.966;3.144;2023-04-03T07:48:22;5.37;;;4.87;;
17921;SDS011;9086;50.966;3.144;2023-04-03T07:50:48;6.77;;;4.30;;
17921;SDS011;9086;50.966;3.144;2023-04-03T07:53:15;4.73;;;4.30;;
17921;SDS011;9086;50.966;3.144;2023-04-03T07:55:41;6.40;;;4.70;;
17921;SDS011;9086;50.966;3.144;2023-04-03T07:58:11;9.50;;;5.47;;
17921;SDS011;9086;50.966;3.144;2023-04-03T08:00:39;4.80;;;4.30;;
17921;SDS011;9086;50.966;3.144;2023-04-03T08:03:05;5.77;;;4.03;;
17921;SDS011;9086;50.966;3.144;2023-04-03T08:05:35;5.23;;;3.97;;
17921;SDS011;9086;50.966;3.144;2023-04-03T08:08:02;5.03;;;4.07;;
17921;SDS011;9086;50.966;3.144;2023-04-03T08:10:29;4.37;;;3.97;;
17921;SDS011;9086;50.966;3.144;2023-04-03T08:12:55;6.10;;;4.20;;
17921;SDS011;9086;50.966;3.144;2023-04-03T08:15:21;4.37;;;3.97;;
17921;SDS011;9086;50.966;3.144;2023-04-03T08:17:47;6.47;;;4.23;;
17921;SDS011;9086;50.966;3.144;2023-04-03T08:20:13;7.33;;;4.77;;
17921;SDS011;9086;50.966;3.144;2023-04-03T08:22:39;7.33;;;3.50;;
17921;SDS011;9086;50.966;3.144;2023-04-03T08:25:05;5.40;;;3.50;;
17921;SDS011;9086;50.966;3.144;2023-04-03T08:27:32;4.85;;;3.35;;
17921;SDS011;9086;50.966;3.144;2023-04-03T08:29:59;4.27;;;2.77;;
17921;SDS011;9086;50.966;3.144;2023-04-03T08:32:26;3.83;;;3.03;;
17921;SDS011;9086;50.966;3.144;2023-04-03T08:34:53;3.93;;;3.10;;
17921;SDS011;9086;50.966;3.144;2023-04-03T08:37:19;4.00;;;3.33;;
17921;SDS011;9086;50.966;3.144;2023-04-03T08:39:45;6.40;;;3.83;;
17921;SDS011;9086;50.966;3.144;2023-04-03T08:42:36;4.97;;;3.20;;
17921;SDS011;9086;50.966;3.144;2023-04-03T08:45:00;4.80;;;4.10;;
17921;SDS011;9086;50.966;3.144;2023-04-03T08:50:02;5.63;;;4.40;;
17921;SDS011;9086;50.966;3.144;2023-04-03T08:52:37;5.97;;;4.57;;
17921;SDS011;9086;50.966;3.144;2023-04-03T08:55:05;9.80;;;5.63;;
17921;SDS011;9086;50.966;3.144;2023-04-03T08:57:39;7.47;;;5.27;;
17921;SDS011;9086;50.966;3.144;2023-04-03T09:00:17;4.63;;;3.97;;
17921;SDS011;9086;50.966;3.144;2023-04-03T09:02:44;7.70;;;5.13;;
17921;SDS011;9086;50.966;3.144;2023-04-03T09:05:13;5.03;;;4.37;;
17921;SDS011;9086;50.966;3.144;2023-04-03T09:07:42;8.07;;;6.63;;
17921;SDS011;9086;50.966;3.144;2023-04-03T09:10:10;7.60;;;6.38;;
17921;SDS011;9086;50.966;3.144;2023-04-03T09:12:38;7.93;;;7.10;;
17921;SDS011;9086;50.966;3.144;2023-04-03T09:25:40;7.37;;;5.73;;
17921;SDS011;9086;50.966;3.144;2023-04-03T09:28:07;7.60;;;4.90;;
17921;SDS011;9086;50.966;3.144;2023-04-03T09:30:34;7.20;;;6.30;;
17921;SDS011;9086;50.966;3.144;2023-04-03T09:33:01;5.90;;;5.30;;
17921;SDS011;9086;50.966;3.144;2023-04-03T09:35:28;6.17;;;5.60;;
17921;SDS011;9086;50.966;3.144;2023-04-03T09:37:59;9.63;;;6.10;;
17921;SDS011;9086;50.966;3.144;2023-04-03T09:42:54;6.53;;;5.73;;
17921;SDS011;9086;50.966;3.144;2023-04-03T09:45:25;7.60;;;5.00;;
17921;SDS011;9086;50.966;3.144;2023-04-03T09:48:05;6.93;;;5.82;;
17921;SDS011;9086;50.966;3.144;2023-04-03T09:50:33;7.53;;;4.57;;
17921;SDS011;9086;50.966;3.144;2023-04-03T09:53:01;6.53;;;4.73;;
